Time;durP1;ratioP1;P1;durP2;ratioP2;P2;SDS_P1;SDS_P2;PMS_P1;PMS_P2;Temp;Humidity;BMP_temperature;BMP_pressure;BME280_temperature;BME280_humidity;BME280_pressure;Samples;Min_cycle;Max_cycle;Signal;HPM_P1;HPM_P2
2022/03/03 00:02:01;;;;;;;13.43;8.00;;;0.50;99.90;;;;;;5034766;28;20168;-76
2022/03/03 00:04:27;;;;;;;14.00;9.03;;;0.50;99.90;;;;;;5034472;28;20302;-76
2022/03/03 00:06:52;;;;;;;14.00;8.73;;;0.40;99.90;;;;;;5033739;28;20188;-77
2022/03/03 00:09:18;;;;;;;12.93;8.33;;;0.40;99.90;;;;;;5035325;28;20180;-77
2022/03/03 00:11:43;;;;;;;15.60;8.90;;;0.40;56.90;;;;;;5034369;28;20188;-77
2022/03/03 00:14:09;;;;;;;12.27;8.10;;;0.30;51.00;;;;;;5034509;28;20175;-77
2022/03/03 00:16:35;;;;;;;10.93;8.37;;;0.30;43.50;;;;;;5034624;28;20176;-77
2022/03/03 00:19:00;;;;;;;14.80;8.50;;;0.30;86.60;;;;;;5033495;28;20178;-77
2022/03/03 00:21:26;;;;;;;12.80;8.47;;;0.20;97.90;;;;;;5032448;28;20195;-76
2022/03/03 00:23:51;;;;;;;13.60;8.17;;;0.20;99.90;;;;;;5033624;28;20185;-76
2022/03/03 00:26:17;;;;;;;13.47;8.53;;;0.20;99.90;;;;;;5033803;28;20168;-76
2022/03/03 00:28:43;;;;;;;14.43;8.70;;;0.20;99.90;;;;;;5031981;28;20270;-77
2022/03/03 00:31:09;;;;;;;16.53;8.57;;;0.10;99.90;;;;;;5032276;28;20199;-77
2022/03/03 00:33:34;;;;;;;15.43;8.60;;;0.10;99.90;;;;;;5033938;28;20168;-77
2022/03/03 00:36:00;;;;;;;16.47;9.00;;;0.10;99.90;;;;;;5033472;28;20211;-77
2022/03/03 00:38:26;;;;;;;14.83;9.10;;;0.10;99.90;;;;;;5033924;28;20172;-76
2022/03/03 00:40:51;;;;;;;14.10;8.97;;;0.10;99.90;;;;;;5032164;28;20204;-77
2022/03/03 00:43:17;;;;;;;14.73;9.93;;;0.10;99.90;;;;;;5033206;28;20187;-77
2022/03/03 00:45:42;;;;;;;13.10;9.00;;;0.10;99.90;;;;;;5035667;28;20191;-77
2022/03/03 00:48:08;;;;;;;14.87;8.73;;;0.10;99.90;;;;;;5035625;28;20174;-78
2022/03/03 00:50:34;;;;;;;13.87;8.23;;;0.10;99.90;;;;;;5035414;28;20207;-78
2022/03/03 00:52:59;;;;;;;13.50;8.20;;;0.00;99.90;;;;;;5033579;28;20199;-79
2022/03/03 00:55:25;;;;;;;12.30;8.60;;;0.00;99.90;;;;;;5036469;28;20200;-77
2022/03/03 00:57:51;;;;;;;14.90;8.77;;;0.00;99.90;;;;;;5039584;28;20179;-77
2022/03/03 01:00:18;;;;;;;12.33;8.10;;;0.00;99.90;;;;;;5041870;28;20199;-77
2022/03/03 01:02:45;;;;;;;12.00;8.20;;;-0.10;99.90;;;;;;5039431;28;20711;-77
2022/03/03 01:05:10;;;;;;;14.20;8.77;;;0.00;99.90;;;;;;5038720;28;20565;-77
2022/03/03 01:07:36;;;;;;;14.03;8.30;;;-0.10;99.90;;;;;;5039893;28;20183;-77
2022/03/03 01:10:03;;;;;;;10.83;7.10;;;-0.10;99.90;;;;;;5038352;28;20195;-77
2022/03/03 01:12:28;;;;;;;12.23;7.27;;;-0.10;99.90;;;;;;5040859;28;20210;-77
2022/03/03 01:14:54;;;;;;;12.93;8.57;;;-0.10;99.90;;;;;;5041716;28;20248;-77
2022/03/03 01:17:19;;;;;;;13.87;7.90;;;-0.10;99.90;;;;;;5039839;28;20175;-77
2022/03/03 01:19:45;;;;;;;10.57;7.47;;;-0.10;99.90;;;;;;5041709;28;20215;-76
2022/03/03 01:22:10;;;;;;;11.90;8.43;;;-0.20;99.90;;;;;;5042274;28;20707;-77
2022/03/03 01:24:36;;;;;;;11.40;8.20;;;-0.20;99.90;;;;;;5039678;28;20187;-77
2022/03/03 01:27:03;;;;;;;13.33;8.27;;;-0.20;99.90;;;;;;5039335;28;20176;-77
2022/03/03 01:29:28;;;;;;;11.43;7.90;;;-0.20;99.90;;;;;;5038998;28;20187;-77
2022/03/03 01:31:54;;;;;;;10.83;7.50;;;-0.20;99.90;;;;;;5037053;28;20188;-77
2022/03/03 01:34:19;;;;;;;14.70;8.00;;;-0.20;99.90;;;;;;5038749;28;20206;-77
2022/03/03 01:36:45;;;;;;;12.43;8.80;;;-0.20;99.90;;;;;;5038896;28;20261;-77
2022/03/03 01:39:10;;;;;;;12.37;7.93;;;-0.30;99.90;;;;;;5036587;28;20729;-77
2022/03/03 01:41:38;;;;;;;10.60;7.00;;;-0.30;99.90;;;;;;5038095;28;20204;-77
2022/03/03 01:44:04;;;;;;;10.90;7.57;;;-0.40;99.90;;;;;;5038432;28;20179;-77
2022/03/03 01:46:30;;;;;;;12.60;8.37;;;-0.30;99.90;;;;;;5037126;28;20178;-77
2022/03/03 01:48:56;;;;;;;10.07;7.90;;;-0.30;99.90;;;;;;5036864;28;20184;-77
2022/03/03 01:51:22;;;;;;;12.47;8.20;;;-0.40;99.90;;;;;;5036908;28;20261;-77
2022/03/03 01:53:47;;;;;;;14.00;8.47;;;-0.40;99.90;;;;;;5035816;28;20192;-76
2022/03/03 01:56:14;;;;;;;11.53;7.87;;;-0.40;99.90;;;;;;5036502;28;20250;-77
2022/03/03 01:58:40;;;;;;;13.27;8.93;;;-0.40;99.90;;;;;;5036600;28;20168;-76
2022/03/03 02:01:06;;;;;;;13.37;8.23;;;-0.50;99.90;;;;;;5037034;28;20219;-76
2022/03/03 02:03:31;;;;;;;11.13;7.77;;;-0.50;99.90;;;;;;5036243;28;20175;-76
2022/03/03 02:05:57;;;;;;;11.67;8.13;;;-0.50;99.90;;;;;;5035110;28;20190;-76
2022/03/03 02:08:23;;;;;;;13.47;8.40;;;-0.50;99.90;;;;;;5035233;28;20582;-77
2022/03/03 02:10:52;;;;;;;11.57;8.17;;;-0.50;99.90;;;;;;5036055;28;20204;-77
2022/03/03 02:13:17;;;;;;;12.97;8.40;;;-0.60;99.90;;;;;;5036538;28;20550;-77
2022/03/03 02:15:54;;;;;;;14.10;8.73;;;-0.60;99.90;;;;;;5035746;28;20339;-77
2022/03/03 02:18:20;;;;;;;14.23;9.37;;;-0.60;99.90;;;;;;5034449;28;20262;-76
2022/03/03 02:20:47;;;;;;;11.40;8.43;;;-0.60;99.90;;;;;;5036323;28;20270;-76
2022/03/03 02:23:13;;;;;;;11.73;8.77;;;-0.60;99.90;;;;;;5036663;28;20655;-76
2022/03/03 02:25:39;;;;;;;16.00;8.70;;;-0.60;99.90;;;;;;5035947;28;20188;-77
2022/03/03 02:28:05;;;;;;;12.03;7.90;;;-0.60;99.90;;;;;;5036538;28;20191;-76
2022/03/03 02:30:31;;;;;;;9.87;7.70;;;-0.60;99.90;;;;;;5035942;28;20229;-77
2022/03/03 02:32:56;;;;;;;12.07;8.20;;;-0.70;99.90;;;;;;5035869;28;20204;-77
2022/03/03 02:35:22;;;;;;;10.93;7.70;;;-0.70;99.90;;;;;;5035738;28;20538;-76
2022/03/03 02:37:48;;;;;;;12.00;8.30;;;-0.70;99.90;;;;;;5035786;28;20199;-77
2022/03/03 02:40:22;;;;;;;14.20;8.27;;;-0.70;99.90;;;;;;5034479;28;20204;-77
2022/03/03 02:42:53;;;;;;;14.13;8.90;;;-0.70;99.90;;;;;;5035872;28;20207;-77
2022/03/03 02:45:20;;;;;;;15.23;9.73;;;-0.70;99.90;;;;;;5035497;28;20194;-76
2022/03/03 02:47:46;;;;;;;12.83;8.60;;;-0.70;99.90;;;;;;5034433;28;20282;-77
2022/03/03 02:50:14;;;;;;;9.77;7.67;;;-0.80;99.90;;;;;;5035615;28;20201;-76
2022/03/03 02:52:40;;;;;;;10.87;7.77;;;-0.80;99.90;;;;;;5034167;28;20183;-76
2022/03/03 02:55:07;;;;;;;13.27;7.73;;;-0.80;99.90;;;;;;5035810;28;20230;-77
2022/03/03 03:00:17;;;;;;;11.23;8.10;;;-0.80;99.90;;;;;;5037537;28;20214;-76
2022/03/03 03:02:42;;;;;;;12.27;8.77;;;-0.90;99.90;;;;;;5035542;28;20636;-77
2022/03/03 03:05:09;;;;;;;13.13;8.33;;;-0.90;99.90;;;;;;5035388;28;20176;-76
2022/03/03 03:07:35;;;;;;;12.50;8.50;;;-0.90;99.90;;;;;;5034976;28;20667;-76
2022/03/03 03:10:01;;;;;;;9.77;7.37;;;-0.90;99.90;;;;;;5034849;28;20206;-76
2022/03/03 03:12:26;;;;;;;11.13;8.13;;;-1.00;99.90;;;;;;5033641;28;20221;-76
2022/03/03 03:14:52;;;;;;;11.63;8.20;;;-1.00;99.90;;;;;;5035260;28;20681;-76
2022/03/03 03:17:17;;;;;;;13.10;8.33;;;-1.00;99.90;;;;;;5032701;28;20209;-76
2022/03/03 03:19:43;;;;;;;11.60;7.77;;;-1.10;99.90;;;;;;5034175;28;20221;-76
2022/03/03 03:22:08;;;;;;;11.80;8.57;;;-1.10;99.90;;;;;;5033227;28;20185;-76
2022/03/03 03:24:34;;;;;;;11.27;7.77;;;-1.10;99.90;;;;;;5034718;28;20186;-76
2022/03/03 03:26:59;;;;;;;10.77;7.83;;;-1.10;99.90;;;;;;5034428;28;20183;-76
2022/03/03 03:29:25;;;;;;;14.67;8.20;;;-1.10;99.90;;;;;;5034115;28;20652;-76
2022/03/03 03:31:50;;;;;;;12.40;8.80;;;-1.20;99.90;;;;;;5033072;28;20188;-77
2022/03/03 03:34:16;;;;;;;13.60;8.13;;;-1.10;99.90;;;;;;5034070;28;20179;-76
2022/03/03 03:36:41;;;;;;;12.00;8.87;;;-1.20;99.90;;;;;;5034229;28;20175;-76
2022/03/03 03:39:07;;;;;;;11.97;8.50;;;-1.10;99.90;;;;;;5032744;28;20193;-75
2022/03/03 03:41:33;;;;;;;12.87;8.27;;;-1.20;99.90;;;;;;5034326;28;20560;-76
2022/03/03 03:43:58;;;;;;;14.40;8.07;;;-1.20;99.90;;;;;;5032866;28;20178;-76
2022/03/03 03:46:25;;;;;;;12.50;8.63;;;-1.20;99.90;;;;;;5034243;28;20273;-76
2022/03/03 03:48:50;;;;;;;10.73;8.03;;;-1.20;99.90;;;;;;5033592;28;20191;-76
2022/03/03 03:51:16;;;;;;;12.30;8.07;;;-1.20;99.90;;;;;;5034123;28;20613;-76
2022/03/03 03:53:42;;;;;;;10.87;8.07;;;-1.20;99.90;;;;;;5032516;28;20217;-76
2022/03/03 03:56:08;;;;;;;12.33;8.43;;;-1.30;99.90;;;;;;5032467;28;20212;-76
2022/03/03 03:58:33;;;;;;;12.00;8.40;;;-1.30;99.90;;;;;;5033739;28;20660;-76
2022/03/03 04:00:59;;;;;;;19.00;9.33;;;-1.30;99.90;;;;;;5033107;28;20203;-76
2022/03/03 04:03:25;;;;;;;12.50;9.17;;;-1.40;99.90;;;;;;5034112;28;20170;-76
2022/03/03 04:05:51;;;;;;;13.80;8.67;;;-1.30;99.90;;;;;;5034827;28;20178;-76
2022/03/03 04:08:18;;;;;;;14.43;9.37;;;-1.30;99.90;;;;;;5034538;28;20621;-76
2022/03/03 04:10:44;;;;;;;12.27;8.17;;;-1.30;99.90;;;;;;5032584;28;20203;-76
2022/03/03 04:13:10;;;;;;;15.30;9.10;;;-1.30;99.90;;;;;;5033004;28;20218;-76
2022/03/03 04:15:35;;;;;;;12.37;8.67;;;-1.30;99.90;;;;;;5032812;28;20306;-76
2022/03/03 04:18:01;;;;;;;13.30;8.67;;;-1.30;99.90;;;;;;5033194;28;20653;-77
2022/03/03 04:20:27;;;;;;;11.23;8.20;;;-1.30;99.90;;;;;;5032680;28;20201;-77
2022/03/03 04:22:53;;;;;;;14.10;9.50;;;-1.30;99.90;;;;;;5032945;28;20595;-77
2022/03/03 04:25:19;;;;;;;11.20;8.60;;;-1.40;99.90;;;;;;5037309;28;20178;-76
2022/03/03 04:27:44;;;;;;;11.90;8.77;;;-1.30;99.90;;;;;;5036766;28;20186;-76
2022/03/03 04:30:11;;;;;;;16.73;9.37;;;-1.40;99.90;;;;;;5033346;28;20205;-76
2022/03/03 04:32:38;;;;;;;11.97;8.50;;;-1.40;99.90;;;;;;5033921;28;20211;-76
2022/03/03 04:35:04;;;;;;;11.93;8.30;;;-1.40;99.90;;;;;;5032372;28;20213;-76
2022/03/03 04:37:30;;;;;;;12.97;9.20;;;-1.40;99.90;;;;;;5033634;28;20636;-76
2022/03/03 04:39:56;;;;;;;12.07;8.07;;;-1.40;99.90;;;;;;5033421;28;20210;-76
2022/03/03 04:42:21;;;;;;;14.93;7.73;;;-1.40;99.90;;;;;;5032869;28;20660;-76
2022/03/03 04:44:47;;;;;;;14.07;8.63;;;-1.40;99.90;;;;;;5046005;22;20226;-81
2022/03/03 04:47:12;;;;;;;13.60;8.77;;;-1.40;99.90;;;;;;5020493;28;20250;-81
2022/03/03 04:49:38;;;;;;;11.47;8.10;;;-1.40;99.90;;;;;;5018815;28;20183;-81
2022/03/03 04:52:04;;;;;;;12.30;7.57;;;-1.40;99.90;;;;;;5019363;28;20190;-81
2022/03/03 04:54:29;;;;;;;13.73;8.40;;;-1.40;99.90;;;;;;5020881;28;20196;-81
2022/03/03 04:56:55;;;;;;;14.57;7.77;;;-1.40;99.90;;;;;;5021168;28;20229;-80
2022/03/03 04:59:23;;;;;;;11.93;8.37;;;-1.40;99.90;;;;;;5020626;28;20183;-81
2022/03/03 05:01:49;;;;;;;12.43;8.63;;;-1.40;99.90;;;;;;5003063;28;20267;-81
2022/03/03 05:04:15;;;;;;;15.27;8.63;;;-1.50;99.90;;;;;;5021201;28;20259;-80
2022/03/03 05:06:40;;;;;;;11.57;8.40;;;-1.40;99.90;;;;;;5025245;28;20162;-80
2022/03/03 05:09:06;;;;;;;12.00;7.90;;;-1.50;99.90;;;;;;5016386;28;20528;-81
2022/03/03 05:11:32;;;;;;;12.57;7.90;;;-1.50;99.90;;;;;;5025477;28;20172;-80
2022/03/03 05:13:57;;;;;;;16.37;7.60;;;-1.50;99.90;;;;;;5019024;28;20491;-80
2022/03/03 05:16:23;;;;;;;15.33;7.20;;;-1.50;99.90;;;;;;5014607;28;20764;-81
2022/03/03 05:18:49;;;;;;;15.87;7.93;;;-1.60;99.90;;;;;;5014318;28;20672;-81
2022/03/03 05:21:15;;;;;;;16.53;8.53;;;-1.60;99.90;;;;;;4998722;28;20178;-81
2022/03/03 05:23:40;;;;;;;11.87;8.43;;;-1.60;99.90;;;;;;4998132;28;20226;-81
2022/03/03 05:26:06;;;;;;;11.63;7.50;;;-1.60;99.90;;;;;;5016127;28;20203;-81
2022/03/03 05:28:32;;;;;;;13.10;8.43;;;-1.60;99.90;;;;;;5016323;28;20183;-80
2022/03/03 05:30:57;;;;;;;14.63;8.67;;;-1.60;99.90;;;;;;5016190;28;20258;-81
2022/03/03 05:33:23;;;;;;;15.27;8.87;;;-1.70;99.90;;;;;;4998673;28;20174;-82
2022/03/03 05:35:56;;;;;;;11.53;8.70;;;-1.70;99.90;;;;;;5016796;28;20779;-81
2022/03/03 05:38:23;;;;;;;11.83;8.93;;;-1.70;99.90;;;;;;5016118;28;20649;-83
2022/03/03 05:40:48;;;;;;;12.63;8.70;;;-1.70;99.90;;;;;;5017676;28;20546;-82
2022/03/03 05:43:14;;;;;;;14.57;9.67;;;-1.70;99.90;;;;;;5001978;28;20200;-83
2022/03/03 05:45:40;;;;;;;14.40;8.93;;;-1.80;99.90;;;;;;5000890;28;20246;-82
2022/03/03 05:48:07;;;;;;;13.07;8.70;;;-1.80;99.90;;;;;;4999927;28;20182;-79
2022/03/03 05:50:33;;;;;;;10.90;8.13;;;-1.80;99.90;;;;;;4999909;28;20230;-78
2022/03/03 05:52:59;;;;;;;15.93;9.67;;;-1.90;99.90;;;;;;5017280;28;20575;-79
2022/03/03 05:55:26;;;;;;;13.10;8.30;;;-1.90;99.90;;;;;;4998827;28;20207;-78
2022/03/03 05:57:54;;;;;;;14.13;9.13;;;-1.90;99.90;;;;;;4998906;28;20264;-78
2022/03/03 06:00:21;;;;;;;13.90;9.20;;;-1.90;99.90;;;;;;5019707;28;20256;-79
2022/03/03 06:02:51;;;;;;;12.70;8.37;;;-1.90;99.90;;;;;;5020734;28;20171;-80
2022/03/03 06:05:26;;;;;;;13.30;8.37;;;-1.90;99.90;;;;;;5003280;28;20304;-80
2022/03/03 06:07:54;;;;;;;16.83;10.33;;;-1.90;99.90;;;;;;5022042;28;20170;-80
2022/03/03 06:10:24;;;;;;;16.07;9.97;;;-1.80;99.90;;;;;;5020359;28;20174;-80
2022/03/03 06:13:03;;;;;;;14.73;9.57;;;-1.80;99.90;;;;;;5021557;28;20175;-80
2022/03/03 06:15:29;;;;;;;15.63;9.97;;;-1.90;99.90;;;;;;5004360;28;20225;-78
2022/03/03 06:17:55;;;;;;;14.47;9.50;;;-1.90;99.90;;;;;;5032585;28;20181;-79
2022/03/03 06:20:23;;;;;;;13.67;10.33;;;-1.90;99.90;;;;;;5029787;28;20190;-80
2022/03/03 06:22:49;;;;;;;14.10;9.50;;;-1.90;99.90;;;;;;5006236;28;20171;-80
2022/03/03 06:25:15;;;;;;;12.87;9.37;;;-1.90;99.90;;;;;;4982319;28;20231;-80
2022/03/03 06:27:40;;;;;;;19.33;9.60;;;-1.90;99.90;;;;;;4999707;28;20172;-80
2022/03/03 06:30:07;;;;;;;17.10;8.83;;;-2.00;99.90;;;;;;4982753;28;20179;-80
2022/03/03 06:32:33;;;;;;;15.83;10.00;;;-1.90;99.90;;;;;;5000690;28;20186;-79
2022/03/03 06:34:58;;;;;;;11.83;8.60;;;-1.90;99.90;;;;;;5000689;28;20573;-80
2022/03/03 06:37:24;;;;;;;13.00;9.17;;;-1.90;99.90;;;;;;4983068;28;20214;-79
2022/03/03 06:39:49;;;;;;;15.10;9.33;;;-1.90;99.90;;;;;;5000508;28;20176;-79
2022/03/03 06:42:15;;;;;;;15.37;9.17;;;-1.90;99.90;;;;;;5000050;28;20186;-79
2022/03/03 06:44:40;;;;;;;17.57;9.40;;;-1.90;99.90;;;;;;4999804;28;20218;-79
2022/03/03 06:47:06;;;;;;;12.93;8.37;;;-1.90;99.90;;;;;;4999923;28;20177;-80
2022/03/03 06:49:32;;;;;;;13.20;8.53;;;-1.90;99.90;;;;;;4998039;28;20176;-78
2022/03/03 06:52:02;;;;;;;14.30;8.70;;;-1.90;99.90;;;;;;4996783;28;20536;-79
2022/03/03 06:54:31;;;;;;;14.90;8.80;;;-1.80;99.90;;;;;;4997551;28;20249;-79
2022/03/03 06:56:57;;;;;;;14.90;8.43;;;-1.80;99.90;;;;;;4980043;28;20227;-79
2022/03/03 06:59:26;;;;;;;13.73;9.00;;;-1.80;99.90;;;;;;4997709;28;20172;-79
2022/03/03 07:01:53;;;;;;;14.33;8.80;;;-1.80;99.90;;;;;;4998434;28;20170;-79
2022/03/03 07:04:19;;;;;;;14.40;8.77;;;-1.80;99.90;;;;;;4998939;28;20561;-76
2022/03/03 07:06:46;;;;;;;15.77;9.17;;;-1.80;99.90;;;;;;4999732;28;20217;-79
2022/03/03 07:09:12;;;;;;;13.70;8.50;;;-1.70;99.90;;;;;;4982167;28;20671;-78
2022/03/03 07:11:40;;;;;;;11.97;8.20;;;-1.70;99.90;;;;;;4999459;28;20208;-79
2022/03/03 07:14:07;;;;;;;14.83;9.43;;;-1.70;99.90;;;;;;4981231;28;20191;-79
2022/03/03 07:16:45;;;;;;;12.43;8.73;;;-1.70;99.90;;;;;;4998333;28;20675;-78
2022/03/03 07:19:16;;;;;;;13.53;9.30;;;-1.70;99.90;;;;;;4998018;28;20157;-79
2022/03/03 07:21:59;;;;;;;15.63;10.03;;;-1.60;99.90;;;;;;4998306;28;20184;-79
2022/03/03 07:24:33;;;;;;;13.80;8.73;;;-1.60;99.90;;;;;;4998718;28;20205;-78
2022/03/03 07:27:01;;;;;;;15.97;8.83;;;-1.50;99.90;;;;;;4998283;28;20168;-80
2022/03/03 07:29:30;;;;;;;12.00;8.87;;;-1.50;99.90;;;;;;4998159;28;20180;-79
2022/03/03 07:31:58;;;;;;;13.87;8.50;;;-1.40;99.90;;;;;;4996808;28;20238;-78
2022/03/03 07:34:29;;;;;;;15.67;9.13;;;-1.40;99.90;;;;;;4995920;28;20227;-78
2022/03/03 07:36:57;;;;;;;17.33;9.23;;;-1.30;99.90;;;;;;4995727;28;20196;-78
2022/03/03 07:39:31;;;;;;;12.53;9.13;;;-1.30;99.90;;;;;;4995603;28;20233;-78
2022/03/03 07:41:59;;;;;;;15.40;9.97;;;-1.40;99.90;;;;;;4995958;28;20641;-79
2022/03/03 07:44:25;;;;;;;16.23;9.00;;;-1.20;99.90;;;;;;4995572;28;20230;-79
2022/03/03 07:46:51;;;;;;;15.30;10.03;;;-1.20;99.90;;;;;;4978020;28;20181;-79
2022/03/03 07:49:20;;;;;;;14.23;8.60;;;-1.10;99.90;;;;;;4995495;28;20175;-78
2022/03/03 07:51:47;;;;;;;14.33;9.67;;;-1.10;99.90;;;;;;4978147;28;20254;-78
2022/03/03 07:54:12;;;;;;;15.43;9.00;;;-1.00;99.90;;;;;;4995261;28;20194;-78
2022/03/03 07:56:43;;;;;;;15.93;10.37;;;-1.00;99.90;;;;;;4995694;28;20202;-78
2022/03/03 07:59:13;;;;;;;17.13;10.00;;;-0.90;99.90;;;;;;4995366;28;20165;-78
2022/03/03 08:01:39;;;;;;;19.73;10.67;;;-0.80;99.90;;;;;;4994975;28;20170;-78
2022/03/03 08:04:05;;;;;;;15.13;9.90;;;-0.80;99.90;;;;;;4994782;28;20657;-79
2022/03/03 08:06:32;;;;;;;16.20;10.50;;;-0.70;99.90;;;;;;4995221;28;20191;-78
2022/03/03 08:09:01;;;;;;;15.27;10.00;;;-0.60;99.90;;;;;;4977402;28;20182;-78
2022/03/03 08:11:27;;;;;;;14.10;9.63;;;-0.60;99.90;;;;;;4994884;28;20203;-79
2022/03/03 08:13:55;;;;;;;15.73;10.53;;;-0.40;99.90;;;;;;4978058;28;20176;-78
2022/03/03 08:16:20;;;;;;;15.50;9.97;;;-0.30;99.90;;;;;;4995161;28;20192;-78
2022/03/03 08:18:47;;;;;;;16.70;11.03;;;-0.30;99.90;;;;;;4995420;28;20247;-78
2022/03/03 08:21:14;;;;;;;16.67;11.33;;;-0.10;99.90;;;;;;4977454;28;20649;-78
2022/03/03 08:23:41;;;;;;;14.93;10.07;;;0.00;99.90;;;;;;4977440;28;20203;-78
2022/03/03 08:26:08;;;;;;;14.80;10.67;;;0.10;99.90;;;;;;4977094;28;20357;-78
2022/03/03 08:28:34;;;;;;;14.47;10.07;;;0.20;99.90;;;;;;4994961;28;20207;-78
2022/03/03 08:31:07;;;;;;;15.83;10.20;;;0.40;99.90;;;;;;4994774;28;20245;-78
2022/03/03 08:33:55;;;;;;;16.47;10.13;;;0.50;99.90;;;;;;4977233;28;20191;-78
2022/03/03 08:36:37;;;;;;;14.50;9.63;;;0.70;99.90;;;;;;4994975;28;20224;-78
2022/03/03 08:39:07;;;;;;;13.80;9.77;;;0.80;99.90;;;;;;4994390;28;20198;-78
2022/03/03 08:41:37;;;;;;;18.37;10.83;;;1.00;99.90;;;;;;4995079;28;20690;-78
2022/03/03 08:44:05;;;;;;;23.23;10.57;;;1.10;99.90;;;;;;4993564;28;20170;-78
2022/03/03 08:46:33;;;;;;;18.57;9.20;;;1.30;99.90;;;;;;4994430;28;20247;-78
2022/03/03 08:49:02;;;;;;;15.93;10.03;;;1.40;99.90;;;;;;4994154;28;20189;-79
2022/03/03 08:51:28;;;;;;;12.97;9.67;;;1.60;87.40;;;;;;4994919;28;20166;-79
2022/03/03 08:53:54;;;;;;;14.90;9.47;;;1.80;1.00;;;;;;4994927;28;20186;-78
2022/03/03 08:56:20;;;;;;;12.07;8.43;;;2.10;1.00;;;;;;4994937;28;20190;-78
2022/03/03 08:58:46;;;;;;;12.13;8.27;;;2.20;1.00;;;;;;4995830;28;20182;-78
2022/03/03 09:01:11;;;;;;;15.67;8.33;;;2.50;1.00;;;;;;4995723;28;20173;-78
2022/03/03 09:03:38;;;;;;;13.30;6.97;;;2.60;1.00;;;;;;4995553;28;20216;-78
2022/03/03 09:06:03;;;;;;;9.40;6.70;;;2.80;1.00;;;;;;4995938;28;20198;-78
2022/03/03 09:08:29;;;;;;;13.40;8.23;;;3.00;99.90;;;;;;4995186;28;20215;-79
2022/03/03 09:10:55;;;;;;;11.67;7.53;;;3.20;99.90;;;;;;4996354;28;20180;-78
2022/03/03 09:13:20;;;;;;;11.97;6.93;;;3.40;1.00;;;;;;4995823;28;20177;-78
2022/03/03 09:15:46;;;;;;;11.13;7.17;;;3.60;1.00;;;;;;4997060;28;20205;-78
2022/03/03 09:18:11;;;;;;;10.63;7.00;;;3.80;99.90;;;;;;4997909;28;20314;-78
2022/03/03 09:20:37;;;;;;;9.40;6.57;;;3.90;99.90;;;;;;4998957;28;20208;-78
2022/03/03 09:23:03;;;;;;;10.70;6.60;;;4.10;1.00;;;;;;5000318;28;20174;-78
2022/03/03 09:25:28;;;;;;;8.23;6.53;;;4.30;1.00;;;;;;5008242;28;20193;-78
2022/03/03 09:27:54;;;;;;;10.60;6.77;;;4.40;1.00;;;;;;5011297;28;20181;-78
2022/03/03 09:30:21;;;;;;;13.67;7.33;;;4.50;32.10;;;;;;5010926;28;20177;-78
2022/03/03 09:32:47;;;;;;;12.10;7.10;;;4.70;1.00;;;;;;5000669;28;20178;-78
2022/03/03 09:35:13;;;;;;;8.97;6.77;;;4.90;1.00;;;;;;4997734;28;20304;-78
2022/03/03 09:37:39;;;;;;;8.97;6.40;;;5.00;30.30;;;;;;4998408;28;20241;-78
2022/03/03 09:40:06;;;;;;;10.97;6.93;;;5.20;99.90;;;;;;4998396;28;20181;-78
2022/03/03 09:42:34;;;;;;;9.50;6.23;;;5.30;99.90;;;;;;4997712;28;20195;-78
2022/03/03 09:45:00;;;;;;;10.53;6.17;;;5.30;1.00;;;;;;4997080;28;20715;-77
2022/03/03 09:47:27;;;;;;;11.57;6.43;;;5.40;1.00;;;;;;4997123;28;20197;-78
2022/03/03 09:49:52;;;;;;;8.97;6.57;;;5.50;1.00;;;;;;4997675;28;20186;-77
2022/03/03 09:52:19;;;;;;;7.93;6.13;;;5.60;99.90;;;;;;4996878;28;20180;-78
2022/03/03 09:54:51;;;;;;;15.47;7.07;;;6.10;99.90;;;;;;4996512;28;20208;-78
2022/03/03 09:57:17;;;;;;;13.40;5.87;;;6.20;99.90;;;;;;4996041;28;20204;-78
2022/03/03 09:59:43;;;;;;;11.93;5.93;;;6.20;99.90;;;;;;4997485;28;20173;-77
2022/03/03 10:02:09;;;;;;;11.37;6.43;;;6.30;99.90;;;;;;4997266;28;20174;-78
2022/03/03 10:04:35;;;;;;;12.27;6.40;;;6.50;99.90;;;;;;4996298;28;20276;-78
2022/03/03 10:07:05;;;;;;;7.93;5.57;;;6.60;99.90;;;;;;4995026;28;20193;-78
2022/03/03 10:09:32;;;;;;;6.97;5.53;;;6.60;42.20;;;;;;4996445;28;20746;-78
2022/03/03 10:12:04;;;;;;;11.30;6.23;;;6.70;99.90;;;;;;4995109;28;20177;-77
2022/03/03 10:14:33;;;;;;;8.33;5.97;;;6.90;33.10;;;;;;4996132;28;20702;-78
2022/03/03 10:17:00;;;;;;;8.53;6.30;;;7.00;1.00;;;;;;4995924;28;20209;-77
2022/03/03 10:19:26;;;;;;;8.93;6.03;;;7.10;1.00;;;;;;4996108;28;20177;-77
2022/03/03 10:21:53;;;;;;;7.97;6.07;;;7.20;1.00;;;;;;4996293;28;20589;-78
2022/03/03 10:24:26;;;;;;;8.17;5.90;;;7.30;1.00;;;;;;4995896;28;20200;-78
2022/03/03 10:27:07;;;;;;;10.60;5.93;;;7.30;1.00;;;;;;4994587;28;20181;-77
2022/03/03 10:29:35;;;;;;;9.20;6.27;;;7.50;1.00;;;;;;4994613;28;20188;-77
2022/03/03 10:32:02;;;;;;;8.40;5.43;;;7.60;1.00;;;;;;4995880;28;20196;-77
2022/03/03 10:34:33;;;;;;;8.13;6.03;;;7.60;1.00;;;;;;4994428;28;20292;-77
2022/03/03 10:37:05;;;;;;;8.00;5.70;;;7.90;1.00;;;;;;4996048;28;20289;-77
2022/03/03 10:39:59;;;;;;;9.07;5.83;;;8.00;1.00;;;;;;4995602;28;20323;-77
2022/03/03 10:42:26;;;;;;;9.27;5.83;;;8.00;1.00;;;;;;4996456;28;20445;-78
2022/03/03 10:45:08;;;;;;;8.43;5.67;;;8.10;1.00;;;;;;4997431;28;20228;-75
2022/03/03 10:47:33;;;;;;;10.10;5.07;;;8.10;1.00;;;;;;4997423;28;20177;-75
2022/03/03 10:50:00;;;;;;;9.17;5.50;;;8.10;1.00;;;;;;4998790;28;20549;-75
2022/03/03 10:52:28;;;;;;;7.83;6.00;;;8.20;1.00;;;;;;4997827;28;20178;-75
2022/03/03 10:54:58;;;;;;;8.90;5.70;;;8.30;1.00;;;;;;4995184;28;20577;-75
2022/03/03 10:57:42;;;;;;;8.63;6.03;;;8.30;1.00;;;;;;4996067;28;20177;-75
2022/03/03 11:00:20;;;;;;;6.30;4.90;;;8.40;1.00;;;;;;4997541;28;20178;-75
2022/03/03 11:02:52;;;;;;;6.53;5.10;;;8.40;1.00;;;;;;4997227;28;20169;-75
2022/03/03 11:05:19;;;;;;;7.43;5.00;;;8.50;1.00;;;;;;4997152;28;20236;-75
2022/03/03 11:07:47;;;;;;;7.50;5.00;;;8.50;1.00;;;;;;4995945;28;20242;-75
2022/03/03 11:10:24;;;;;;;7.37;5.33;;;8.60;1.00;;;;;;4997285;28;20265;-75
2022/03/03 11:12:50;;;;;;;4.67;4.17;;;8.60;1.00;;;;;;4997293;28;20248;-76
2022/03/03 11:15:19;;;;;;;6.97;4.63;;;8.70;1.00;;;;;;4996811;28;20237;-76
2022/03/03 11:17:45;;;;;;;11.23;5.83;;;8.80;1.00;;;;;;4995748;28;20177;-76
2022/03/03 11:20:14;;;;;;;9.17;6.17;;;8.90;1.00;;;;;;4994381;28;20181;-76
2022/03/03 11:22:41;;;;;;;8.30;6.30;;;8.90;1.00;;;;;;4995876;28;20166;-76
2022/03/03 11:25:12;;;;;;;7.37;5.73;;;9.00;1.00;;;;;;4995835;28;20209;-76
2022/03/03 11:27:42;;;;;;;9.77;6.47;;;9.00;1.00;;;;;;4994341;28;20257;-76
2022/03/03 11:30:16;;;;;;;7.67;6.13;;;9.10;1.00;;;;;;4994268;28;20268;-76
2022/03/03 11:32:43;;;;;;;9.10;6.27;;;9.20;1.00;;;;;;4994353;28;20546;-76
2022/03/03 11:35:12;;;;;;;8.67;6.60;;;9.20;1.00;;;;;;4995167;28;20201;-76
2022/03/03 11:37:43;;;;;;;11.80;6.10;;;9.30;1.00;;;;;;4993902;28;20188;-76
2022/03/03 11:40:12;;;;;;;8.03;6.33;;;9.40;1.00;;;;;;4995170;28;20158;-76
2022/03/03 11:42:47;;;;;;;7.50;6.60;;;9.50;1.00;;;;;;4995233;28;20174;-76
2022/03/03 11:45:13;;;;;;;7.97;5.87;;;9.50;1.00;;;;;;4995173;28;20589;-76
2022/03/03 11:47:42;;;;;;;9.10;5.90;;;9.60;1.00;;;;;;4994985;28;20178;-76
2022/03/03 11:50:23;;;;;;;8.47;6.10;;;9.60;1.00;;;;;;4995103;28;20201;-76
2022/03/03 11:53:14;;;;;;;9.57;6.60;;;9.70;1.00;;;;;;4995139;28;20245;-76
2022/03/03 11:55:51;;;;;;;10.17;6.50;;;9.70;1.00;;;;;;4994638;28;20571;-76
2022/03/03 11:58:26;;;;;;;8.53;6.33;;;9.70;1.00;;;;;;4994815;28;20695;-76
2022/03/03 12:01:02;;;;;;;8.00;5.90;;;9.80;1.00;;;;;;4993885;28;20220;-76
2022/03/03 12:03:31;;;;;;;10.53;6.30;;;9.90;1.00;;;;;;4995063;28;20173;-76
2022/03/03 12:06:13;;;;;;;7.30;5.90;;;10.00;1.00;;;;;;4993720;28;20205;-76
2022/03/03 12:08:42;;;;;;;9.13;6.03;;;9.90;1.00;;;;;;4994780;28;20174;-76
2022/03/03 12:11:18;;;;;;;8.97;6.57;;;9.90;1.00;;;;;;4993705;28;20193;-76
2022/03/03 12:13:49;;;;;;;7.87;5.53;;;10.00;1.00;;;;;;4994874;28;20260;-76
2022/03/03 12:16:17;;;;;;;8.07;6.33;;;10.00;1.00;;;;;;4993365;28;20205;-76
2022/03/03 12:18:49;;;;;;;8.43;6.10;;;10.00;1.00;;;;;;4993864;28;20216;-76
2022/03/03 12:21:34;;;;;;;8.80;6.10;;;10.00;1.00;;;;;;4994943;28;20654;-76
2022/03/03 12:24:14;;;;;;;8.63;6.40;;;10.00;1.00;;;;;;4994937;28;20528;-76
2022/03/03 12:26:55;;;;;;;7.43;5.93;;;10.10;1.00;;;;;;4995721;28;20232;-76
2022/03/03 12:29:41;;;;;;;10.03;5.93;;;10.10;1.00;;;;;;4993556;28;20182;-77
2022/03/03 12:32:26;;;;;;;7.93;6.00;;;10.30;1.00;;;;;;4993582;28;20308;-77
2022/03/03 12:34:53;;;;;;;9.00;6.30;;;10.40;1.00;;;;;;4993028;28;20214;-76
2022/03/03 12:37:18;;;;;;;8.90;6.30;;;10.40;1.00;;;;;;4994840;28;20519;-77
2022/03/03 12:39:55;;;;;;;8.63;6.03;;;10.50;1.00;;;;;;4993179;28;20181;-77
2022/03/03 12:42:23;;;;;;;8.00;6.10;;;10.50;1.00;;;;;;4993254;28;20181;-76
2022/03/03 12:44:50;;;;;;;10.40;6.33;;;10.50;1.00;;;;;;4994269;28;20209;-76
2022/03/03 12:47:18;;;;;;;9.17;6.37;;;10.50;1.00;;;;;;4994469;28;20190;-77
2022/03/03 12:49:48;;;;;;;7.10;6.20;;;10.40;1.00;;;;;;4993740;28;20206;-76
2022/03/03 12:52:13;;;;;;;10.80;6.43;;;10.50;1.00;;;;;;4994204;28;20190;-78